Terminal Aerodrome Forecast
Issued by NWS

Home | Current Version | Previous Version | Text Only | Print | Product List | Glossary On
Versions: 1 2 3 4 5 6 7 8 9 10 11 12 13 14 15 16 17 18 19 20 21 22 23 24 25 26 27 28
000
FTUS41 KBOX 280521
TAFBAF
TAF
KBAF 280521Z 2806/2906 33004KT P6SM BKN150
     FM280900 33006KT P6SM SCT250
     FM281500 33010G20KT P6SM SCT050
     FM282200 33005KT P6SM FEW250=

USA.gov is the U.S. government's official web portal to all federal, state and local government web resources and services.